Afyon, Turkey
Current Conditions -  °F | °C
As of 3:20 PM on Thursday 23 Oct 2014 (Local Time) from LTFC Reporting Station
Broken Clouds Broken Clouds  
Wind Chill: 64°   Ceiling: 3500
Heat Index: 64°   Visibility: 6mi
Dew Point: 48°   Wind: 22mph
Humidity: 56%   Direction: 140°SE
Pressure: 29.88"   Gusts: NA
Location:  38.76°N, 30.54°E
Report Text: LTFC 231220Z 14019KT 9999 FEW025CB BKN035 18/09 Q1012
Loading
Personal Weather Stations






























Interactive Weather Map
Tropical Storm Tracking
New forecast layout! Learn more

10-Day Weather Forecast

Advertisements
Track Severe Weather on mobile